createdAt,value
2018-02-23T05:24:43.719Z,14.37
2018-02-23T05:27:15.859Z,13.13
2018-02-23T05:29:47.787Z,14.53
2018-02-23T05:32:19.684Z,13.23
2018-02-23T05:34:51.851Z,13.67
2018-02-23T05:37:23.854Z,13.03
2018-02-23T05:39:55.818Z,14.33
2018-02-23T05:42:27.788Z,13.43
2018-02-23T05:45:00.436Z,12.93
2018-02-23T05:47:32.537Z,13.30
2018-02-23T05:50:04.509Z,13.77
2018-02-23T05:52:36.404Z,13.13
2018-02-23T05:55:08.284Z,13.13
2018-02-23T05:57:40.273Z,12.93
2018-02-23T06:00:12.163Z,13.07
2018-02-23T06:02:44.912Z,13.00
2018-02-23T06:05:17.583Z,13.23
2018-02-23T06:07:49.498Z,12.63
2018-02-23T06:10:21.418Z,12.60
2018-02-23T06:12:53.315Z,11.93
2018-02-23T06:15:25.197Z,12.43
2018-02-23T06:17:57.351Z,12.97
2018-02-23T06:20:29.237Z,13.30
2018-02-23T06:23:01.215Z,12.80
2018-02-23T06:25:33.099Z,12.40
2018-02-23T06:28:05.854Z,13.17
2018-02-23T06:30:37.747Z,12.50
2018-02-23T06:33:10.655Z,12.23
2018-02-23T06:35:42.663Z,13.10
2018-02-23T06:38:14.563Z,13.83
2018-02-23T06:40:47.576Z,12.43
2018-02-23T06:43:19.855Z,12.70
2018-02-23T06:45:51.743Z,13.73
2018-02-23T06:48:23.643Z,12.87
2018-02-23T06:50:56.379Z,12.30
2018-02-23T06:53:28.281Z,12.47
2018-02-23T06:56:01.019Z,13.27
2018-02-23T06:58:32.931Z,13.30
2018-02-23T07:01:04.823Z,12.40
2018-02-23T07:03:36.964Z,12.77
2018-02-23T07:06:08.866Z,12.83
2018-02-23T07:08:40.768Z,12.70
2018-02-23T07:11:13.703Z,12.53
2018-02-23T07:13:45.567Z,12.40
2018-02-23T07:16:17.698Z,15.37
2018-02-23T07:18:49.588Z,13.93
2018-02-23T07:21:21.664Z,13.07
2018-02-23T07:23:53.566Z,13.17
2018-02-23T07:26:26.299Z,12.67
2018-02-23T07:28:58.268Z,12.30
2018-02-23T07:31:30.487Z,11.57
2018-02-23T07:34:02.607Z,11.60
2018-02-23T07:36:34.491Z,12.40
2018-02-23T07:39:07.142Z,11.80
2018-02-23T07:41:39.028Z,11.10
2018-02-23T07:44:11.708Z,11.97
2018-02-23T07:46:44.358Z,11.43
2018-02-23T07:49:16.324Z,11.13
2018-02-23T07:51:48.542Z,11.47
2018-02-23T07:54:20.439Z,11.30
2018-02-23T07:56:52.568Z,11.27
2018-02-23T07:59:24.471Z,11.70
2018-02-23T08:01:56.392Z,10.50
2018-02-23T08:04:28.559Z,10.07
2018-02-23T08:07:00.727Z,10.20
2018-02-23T08:09:32.635Z,9.03
2018-02-23T08:12:04.507Z,9.80
2018-02-23T08:14:36.715Z,9.53
2018-02-23T08:17:08.603Z,10.37
2018-02-23T08:19:40.548Z,10.03
2018-02-23T08:22:12.455Z,9.50
2018-02-23T08:24:44.403Z,8.73
2018-02-23T08:27:16.354Z,8.23
2018-02-23T08:29:48.327Z,7.87
2018-02-23T08:32:20.210Z,7.47
2018-02-23T08:34:52.955Z,7.43
2018-02-23T08:37:24.836Z,6.97
2018-02-23T08:39:56.726Z,5.97
2018-02-23T08:42:30.182Z,6.40
2018-02-23T08:45:02.164Z,6.83
2018-02-23T08:47:35.813Z,6.00
2018-02-23T08:50:07.812Z,5.40
2018-02-23T08:52:39.830Z,5.83
2018-02-23T08:55:11.869Z,5.47
2018-02-23T08:57:43.874Z,4.80
2018-02-23T09:00:17.552Z,5.70
2018-02-23T09:02:49.617Z,5.80
2018-02-23T09:05:21.653Z,7.23
2018-02-23T09:07:54.420Z,5.37
2018-02-23T09:10:27.221Z,5.60
2018-02-23T09:12:59.963Z,4.90
2018-02-23T09:15:32.118Z,5.23
2018-02-23T09:18:04.102Z,5.33
2018-02-23T09:20:36.001Z,5.60
2018-02-23T09:23:08.647Z,5.67
2018-02-23T09:25:40.533Z,5.53
2018-02-23T09:28:13.162Z,5.17
2018-02-23T09:30:45.138Z,5.67
2018-02-23T09:33:17.014Z,5.20
2018-02-23T09:35:48.901Z,5.70
2018-02-23T09:38:21.079Z,5.70
2018-02-23T09:40:53.079Z,5.60
2018-02-23T09:43:25.043Z,5.67
2018-02-23T09:45:56.926Z,5.53
2018-02-23T09:48:28.803Z,5.70
2018-02-23T09:51:01.451Z,5.57
2018-02-23T09:53:33.666Z,5.83
2018-02-23T09:56:05.552Z,5.67
2018-02-23T09:58:37.427Z,5.50
2018-02-23T10:01:09.390Z,5.60
2018-02-23T10:03:41.357Z,5.77
2018-02-23T10:06:13.319Z,5.90
2018-02-23T10:08:45.539Z,6.13
2018-02-23T10:11:17.427Z,6.23
2018-02-23T10:13:49.412Z,6.03
2018-02-23T10:16:21.294Z,5.70
2018-02-23T10:18:53.934Z,5.87
2018-02-23T10:21:25.819Z,5.23
2018-02-23T10:23:58.028Z,5.77
2018-02-23T10:26:29.939Z,6.43
2018-02-23T10:29:01.896Z,6.30
2018-02-23T10:31:33.855Z,6.67
2018-02-23T10:34:05.840Z,6.10
2018-02-23T10:36:38.495Z,6.27
2018-02-23T10:39:10.412Z,5.63
2018-02-23T10:41:42.682Z,6.40
2018-02-23T10:44:14.566Z,6.40
2018-02-23T10:46:46.812Z,6.60
2018-02-23T10:49:18.712Z,6.00
2018-02-23T10:51:50.674Z,6.20
2018-02-23T10:54:22.639Z,6.00
2018-02-23T10:56:54.864Z,6.03
2018-02-23T10:59:26.763Z,5.90
2018-02-23T11:01:58.727Z,5.83
2018-02-23T11:04:30.687Z,5.90
2018-02-23T11:07:02.574Z,6.20
2018-02-23T11:09:34.671Z,5.40
2018-02-23T11:12:06.560Z,6.13
2018-02-23T11:14:38.426Z,5.83
2018-02-23T11:17:10.399Z,6.00
2018-02-23T11:19:42.365Z,5.60
2018-02-23T11:22:14.331Z,6.00
2018-02-23T11:24:46.222Z,6.10
2018-02-23T11:27:18.959Z,6.03
2018-02-23T11:29:50.920Z,6.20
2018-02-23T11:32:22.883Z,6.63
2018-02-23T11:34:54.775Z,6.30
2018-02-23T11:37:26.967Z,5.97
2018-02-23T11:39:58.842Z,6.40
2018-02-23T11:42:30.739Z,6.63
2018-02-23T11:45:02.643Z,6.27
2018-02-23T11:47:35.299Z,6.40
2018-02-23T11:50:07.961Z,6.40
2018-02-23T11:52:39.859Z,7.27
2018-02-23T11:55:12.586Z,7.00
2018-02-23T11:57:44.500Z,6.87
2018-02-23T12:00:17.231Z,7.00
2018-02-23T12:02:49.194Z,7.10
2018-02-23T12:05:21.415Z,6.97
2018-02-23T12:07:53.324Z,7.03
2018-02-23T12:10:25.190Z,6.63
2018-02-23T12:12:57.190Z,7.70
2018-02-23T12:15:29.934Z,7.17
2018-02-23T12:18:01.888Z,6.97
2018-02-23T12:20:33.856Z,7.47
2018-02-23T12:23:05.815Z,7.30
2018-02-23T12:25:37.778Z,7.10
2018-02-23T12:28:09.674Z,7.20
2018-02-23T12:30:42.423Z,7.80
2018-02-23T12:33:14.336Z,7.43
2018-02-23T12:35:46.321Z,7.30
2018-02-23T12:38:18.314Z,7.30
2018-02-23T12:40:50.186Z,6.97
2018-02-23T12:43:22.100Z,7.53
2018-02-23T12:45:54.112Z,7.10
2018-02-23T12:48:26.039Z,7.23
2018-02-23T12:50:58.019Z,7.93
2018-02-23T12:53:29.963Z,6.67
2018-02-23T12:56:01.840Z,6.77
2018-02-23T12:58:33.946Z,6.73
2018-02-23T13:01:05.838Z,7.87
2018-02-23T13:03:37.718Z,7.37
2018-02-23T13:06:09.614Z,7.43
2018-02-23T13:08:42.346Z,7.87
2018-02-23T13:11:14.234Z,7.00
2018-02-23T13:13:46.198Z,7.00
2018-02-23T13:16:18.238Z,7.80
2018-02-23T13:18:50.135Z,7.47
2018-02-23T13:21:22.775Z,7.00
2018-02-23T13:23:54.677Z,7.63
2018-02-23T13:26:26.565Z,7.23
2018-02-23T13:28:58.447Z,7.37
2018-02-23T13:31:30.319Z,6.97
2018-02-23T13:34:02.212Z,7.67
2018-02-23T13:36:34.964Z,7.73
2018-02-23T13:39:06.843Z,6.97
2018-02-23T13:41:38.730Z,8.00
2018-02-23T13:44:11.393Z,7.67
2018-02-23T13:46:44.057Z,7.77
2018-02-23T13:49:16.099Z,7.80
2018-02-23T13:51:47.969Z,7.93
2018-02-23T13:54:19.872Z,7.47
2018-02-23T13:56:52.663Z,8.03
2018-02-23T13:59:24.576Z,8.43
2018-02-23T14:01:56.456Z,8.30
2018-02-23T14:04:29.126Z,8.10
2018-02-23T14:07:00.992Z,8.23
2018-02-23T14:09:33.644Z,8.00
2018-02-23T14:12:05.533Z,8.80
2018-02-23T14:14:38.183Z,8.57
2018-02-23T14:17:10.064Z,8.03
2018-02-23T14:19:41.955Z,8.37
2018-02-23T14:22:13.848Z,7.67
2018-02-23T14:24:45.736Z,7.70
2018-02-23T14:27:17.599Z,8.27
2018-02-23T14:29:49.495Z,7.67
2018-02-23T14:32:22.141Z,7.93
2018-02-23T14:34:54.028Z,8.90
2018-02-23T14:37:26.664Z,8.70
2018-02-23T14:39:58.896Z,8.13
2018-02-23T14:42:30.763Z,7.87
2018-02-23T14:45:02.651Z,8.37
2018-02-23T14:47:34.527Z,7.47
2018-02-23T14:50:18.608Z,8.70
2018-02-23T14:52:50.506Z,8.80
2018-02-23T14:55:22.459Z,8.43
2018-02-23T14:57:54.359Z,8.20
2018-02-23T15:00:27.112Z,8.33
2018-02-23T15:02:59.070Z,7.80
2018-02-23T15:05:30.992Z,7.53
2018-02-23T15:08:02.928Z,8.03
2018-02-23T15:10:34.792Z,7.73
2018-02-23T15:13:07.471Z,8.40
2018-02-23T15:15:40.100Z,8.43
2018-02-23T15:18:12.335Z,8.60
2018-02-23T15:20:44.499Z,8.60
2018-02-23T15:23:16.408Z,8.13
2018-02-23T15:25:48.286Z,8.13
2018-02-23T15:28:20.177Z,8.03
2018-02-23T15:31:04.183Z,8.03
2018-02-23T15:33:36.067Z,7.90
2018-02-23T15:36:07.935Z,8.80
2018-02-23T15:38:40.596Z,9.00
2018-02-23T15:41:12.467Z,7.57
2018-02-23T15:43:45.207Z,8.10
2018-02-23T15:46:17.171Z,8.00
2018-02-23T15:48:49.821Z,7.97
2018-02-23T15:51:21.916Z,7.80
2018-02-23T15:53:54.571Z,7.50
2018-02-23T15:56:26.450Z,7.67
2018-02-23T15:58:58.344Z,8.03
2018-02-23T16:01:30.215Z,7.93
2018-02-23T16:04:02.856Z,7.90
2018-02-23T16:06:34.761Z,9.60
2018-02-23T16:09:06.682Z,7.90
2018-02-23T16:11:38.900Z,8.70
2018-02-23T16:14:10.800Z,8.23
2018-02-23T16:16:42.692Z,8.53
2018-02-23T16:19:14.583Z,8.70
2018-02-23T16:21:46.633Z,8.33
2018-02-23T16:24:19.281Z,7.77
2018-02-23T16:26:51.155Z,7.97
2018-02-23T16:29:24.060Z,7.57
2018-02-23T16:31:56.247Z,7.97
2018-02-23T16:34:28.118Z,8.60
2018-02-23T16:36:59.998Z,8.47
2018-02-23T16:39:31.887Z,8.17
2018-02-23T16:42:04.533Z,8.93
2018-02-23T16:44:36.424Z,8.00
2018-02-23T16:47:09.063Z,7.90
2018-02-23T16:49:40.938Z,8.00
2018-02-23T16:52:12.852Z,7.93
2018-02-23T16:54:44.789Z,8.23
2018-02-23T16:57:17.430Z,8.03
2018-02-23T16:59:49.319Z,7.50
2018-02-23T17:02:21.531Z,8.23
2018-02-23T17:04:53.414Z,7.53
2018-02-23T17:07:26.115Z,7.73
2018-02-23T17:09:58.011Z,7.30
2018-02-23T17:12:30.178Z,7.47
2018-02-23T17:15:02.083Z,7.03
2018-02-23T17:17:34.002Z,8.27
2018-02-23T17:20:05.894Z,8.53
2018-02-23T17:22:37.763Z,8.40
2018-02-23T17:25:09.643Z,7.77
2018-02-23T17:27:41.519Z,7.60
2018-02-23T17:30:14.431Z,8.23
2018-02-23T17:32:46.315Z,7.47
2018-02-23T17:35:18.191Z,7.83
2018-02-23T17:37:50.067Z,7.93
2018-02-23T17:40:21.967Z,7.57
2018-02-23T17:42:53.834Z,7.97
2018-02-23T17:45:25.719Z,7.60
2018-02-23T17:47:57.857Z,8.13
2018-02-23T17:50:29.742Z,8.57
2018-02-23T17:53:01.611Z,8.20
2018-02-23T17:55:33.533Z,8.83
2018-02-23T17:58:05.375Z,8.47
2018-02-23T18:00:38.019Z,8.80
2018-02-23T18:03:09.890Z,8.03
2018-02-23T18:05:41.780Z,8.77
2018-02-23T18:08:14.410Z,8.40
2018-02-23T18:10:46.319Z,9.13
2018-02-23T18:13:18.957Z,8.97
2018-02-23T18:15:50.844Z,8.47
2018-02-23T18:18:23.031Z,9.37
2018-02-23T18:20:54.918Z,8.73
2018-02-23T18:23:26.792Z,8.30
2018-02-23T18:25:58.680Z,8.67
2018-02-23T18:28:30.557Z,9.27
2018-02-23T18:31:03.460Z,9.10
2018-02-23T18:33:35.323Z,8.77
2018-02-23T18:36:07.219Z,8.80
2018-02-23T18:38:39.343Z,9.37
2018-02-23T18:41:11.231Z,8.63
2018-02-23T18:43:43.106Z,8.30
2018-02-23T18:46:15.007Z,9.40
2018-02-23T18:48:46.867Z,9.93
2018-02-23T18:51:19.515Z,8.63
2018-02-23T18:53:51.384Z,8.53
2018-02-23T18:56:23.332Z,8.60
2018-02-23T18:58:55.279Z,8.87
2018-02-23T19:01:27.163Z,8.70
2018-02-23T19:03:59.035Z,8.20
2018-02-23T19:06:30.915Z,8.67
2018-02-23T19:09:03.561Z,8.63
2018-02-23T19:11:36.209Z,8.53
2018-02-23T19:14:08.136Z,9.07
2018-02-23T19:16:40.909Z,8.70
2018-02-23T19:19:13.677Z,9.00
2018-02-23T19:21:45.538Z,9.30
2018-02-23T19:24:17.412Z,9.00
2018-02-23T19:26:50.056Z,9.00
2018-02-23T19:29:21.928Z,7.77
2018-02-23T19:31:53.847Z,9.13
2018-02-23T19:34:25.715Z,8.53
2018-02-23T19:36:57.681Z,8.97
2018-02-23T19:39:29.555Z,7.57
2018-02-23T19:42:01.454Z,7.80
2018-02-23T19:44:34.091Z,8.83
2018-02-23T19:47:06.307Z,8.97
2018-02-23T19:49:38.207Z,8.60
2018-02-23T19:52:10.091Z,7.17
2018-02-23T19:54:42.178Z,8.00
2018-02-23T19:57:14.837Z,7.53
2018-02-23T19:59:46.950Z,7.77
2018-02-23T20:02:19.106Z,8.87
2018-02-23T20:04:51.747Z,8.13
2018-02-23T20:07:23.635Z,8.13
2018-02-23T20:09:56.370Z,7.60
2018-02-23T20:12:28.255Z,8.03
2018-02-23T20:15:00.140Z,7.47
2018-02-23T20:17:32.035Z,7.50
2018-02-23T20:20:04.007Z,8.67
2018-02-23T20:22:35.979Z,7.90
2018-02-23T20:25:07.858Z,8.13
2018-02-23T20:27:40.055Z,7.97
2018-02-23T20:30:12.221Z,8.00
2018-02-23T20:32:44.390Z,7.87
2018-02-23T20:35:16.274Z,7.93
2018-02-23T20:37:48.260Z,8.63
2018-02-23T20:40:20.208Z,8.57
2018-02-23T20:42:52.895Z,8.23
2018-02-23T20:45:24.791Z,7.67
2018-02-23T20:47:57.448Z,8.23
2018-02-23T20:50:29.328Z,9.03
2018-02-23T20:53:02.018Z,8.20
2018-02-23T20:55:34.656Z,8.37
2018-02-23T20:58:06.612Z,7.43
2018-02-23T21:00:38.483Z,6.80
2018-02-23T21:03:10.698Z,7.40
2018-02-23T21:05:42.626Z,6.70
2018-02-23T21:08:14.523Z,7.57
2018-02-23T21:10:46.392Z,6.80
2018-02-23T21:13:18.282Z,6.00
2018-02-23T21:15:50.243Z,6.90
2018-02-23T21:18:22.125Z,7.23
2018-02-23T21:20:53.991Z,7.10
2018-02-23T21:23:25.878Z,7.10
2018-02-23T21:25:57.760Z,7.00
2018-02-23T21:28:29.648Z,6.67
